createdAt,value
2019-02-27T20:29:40.546Z,54.00
2019-02-27T20:45:08.639Z,47.90
2019-02-27T20:47:36.840Z,50.00
2019-02-27T20:57:48.692Z,50.60
2019-02-27T21:06:12.821Z,25.90
2019-02-27T21:08:43.074Z,37.30
2019-02-27T21:11:11.465Z,46.40
2019-02-27T21:13:40.070Z,53.80
2019-02-27T21:16:09.508Z,58.10
2019-02-27T21:18:38.694Z,61.50
2019-02-27T21:21:07.599Z,63.80
2019-02-27T21:23:36.032Z,65.00
2019-02-27T21:26:04.401Z,65.70
2019-02-27T21:28:32.792Z,66.30
2019-02-27T21:31:01.082Z,66.60
2019-02-27T21:33:29.535Z,67.00
2019-02-27T21:36:00.142Z,67.20
2019-02-27T21:38:27.949Z,67.30
2019-02-27T21:40:56.303Z,67.70
2019-02-27T21:43:25.590Z,67.80
2019-02-27T21:45:54.675Z,68.20
2019-02-27T21:48:23.402Z,68.10
2019-02-27T21:50:53.115Z,68.20
2019-02-27T21:53:21.488Z,68.20
2019-02-27T21:55:49.899Z,68.30
2019-02-27T21:58:20.647Z,68.40
2019-02-27T22:00:49.009Z,68.50
2019-02-27T22:03:17.669Z,68.60
2019-02-27T22:05:47.072Z,68.70
2019-02-27T22:08:15.457Z,68.70
2019-02-27T22:10:43.955Z,68.90
2019-02-27T22:13:12.367Z,69.20
2019-02-27T22:15:40.688Z,69.40
2019-02-27T22:18:11.783Z,69.60
2019-02-27T22:20:39.028Z,69.60
2019-02-27T22:23:07.603Z,69.90
2019-02-27T22:25:35.910Z,70.00
2019-02-27T22:28:04.333Z,70.20
2019-02-27T22:30:32.742Z,70.40
2019-02-27T22:33:01.092Z,70.70
2019-02-27T22:35:30.414Z,70.70
2019-02-27T22:38:00.440Z,70.70
2019-02-27T22:40:28.838Z,71.00
2019-02-27T22:42:57.158Z,71.10
2019-02-27T22:45:25.523Z,71.20
2019-02-27T22:47:54.714Z,71.40
2019-02-27T22:50:23.166Z,71.70
2019-02-27T22:52:54.621Z,71.90
2019-02-27T22:55:21.564Z,72.40
2019-02-27T22:57:49.966Z,72.50
2019-02-27T23:00:45.451Z,72.70
2019-02-27T23:03:14.077Z,72.80
2019-02-27T23:05:42.414Z,73.00
2019-02-27T23:08:10.867Z,72.80
2019-02-27T23:10:39.266Z,73.10
2019-02-27T23:13:12.483Z,73.30
2019-02-27T23:15:38.635Z,73.50
2019-02-27T23:18:07.142Z,73.70
2019-02-27T23:20:35.583Z,74.60
2019-02-27T23:23:03.954Z,74.10
2019-02-27T23:25:32.633Z,74.10
2019-02-27T23:28:02.045Z,74.30
2019-02-27T23:30:31.539Z,74.30
2019-02-27T23:33:02.241Z,74.60
2019-02-27T23:35:29.954Z,74.80
2019-02-27T23:38:02.963Z,74.90
2019-02-27T23:40:28.303Z,74.90
2019-02-27T23:43:02.349Z,75.00
2019-02-27T23:45:26.707Z,75.00
2019-02-27T23:47:55.134Z,75.10
2019-02-27T23:50:23.494Z,75.40
2019-02-27T23:52:53.227Z,75.60
2019-02-27T23:55:22.308Z,75.70
2019-02-27T23:57:50.687Z,75.90
